createdAt,value
2023-02-02T00:01:39.166Z,62.4
2023-02-02T00:03:39.319Z,62.7
2023-02-02T00:05:14.212Z,62.8
2023-02-02T00:07:12.236Z,62.8
2023-02-02T00:09:12.170Z,63
2023-02-02T00:11:12.182Z,63.1
2023-02-02T00:13:16.556Z,63.1
2023-02-02T00:15:12.174Z,63.4
2023-02-02T00:17:12.212Z,63.4
2023-02-02T00:19:16.341Z,63.8
2023-02-02T00:21:12.219Z,64.1
2023-02-02T00:23:12.142Z,64
2023-02-02T00:25:12.172Z,64.2
2023-02-02T00:27:22.630Z,64.2
2023-02-02T00:29:12.394Z,64.4
2023-02-02T00:31:39.547Z,64.5
2023-02-02T00:33:39.229Z,64.5
2023-02-02T00:35:13.313Z,64.7
2023-02-02T00:37:12.132Z,64.6
2023-02-02T00:39:12.123Z,64.7
2023-02-02T00:41:16.379Z,64.8
2023-02-02T00:43:12.132Z,64.9
2023-02-02T00:45:12.141Z,65
2023-02-02T00:47:12.158Z,65.5
2023-02-02T00:49:39.387Z,65.5
2023-02-02T00:51:12.162Z,65.6
2023-02-02T00:53:34.877Z,65.6
2023-02-02T00:55:13.631Z,65.6
2023-02-02T00:57:17.870Z,65.5
2023-02-02T00:59:12.215Z,65.3
2023-02-02T01:01:12.319Z,65.4
2023-02-02T01:03:18.302Z,65.4
2023-02-02T01:05:12.235Z,65.6
2023-02-02T01:07:13.433Z,65.5
2023-02-02T01:09:13.526Z,65.7
2023-02-02T01:11:12.114Z,65.7
2023-02-02T01:13:12.098Z,65.5
2023-02-02T01:15:12.157Z,65.5
2023-02-02T01:17:12.163Z,65.6
2023-02-02T01:19:12.137Z,65.6
2023-02-02T01:21:12.117Z,65.3
2023-02-02T01:23:13.854Z,65.4
2023-02-02T01:25:22.691Z,65.5
2023-02-02T01:27:13.524Z,65.1
2023-02-02T01:29:16.479Z,65.1
2023-02-02T01:31:13.382Z,65.3
2023-02-02T01:33:12.327Z,65.4
2023-02-02T01:35:12.100Z,65.3
2023-02-02T01:37:17.994Z,65.2
2023-02-02T01:39:19.460Z,65.2
2023-02-02T01:41:12.163Z,65.5
2023-02-02T01:41:59.536Z,65.5
2023-02-02T01:43:22.866Z,65.8
2023-02-02T01:45:12.183Z,65.7
2023-02-02T01:47:12.053Z,65.8
2023-02-02T01:49:11.384Z,65.8
2023-02-02T01:49:39.666Z,66.2
2023-02-02T01:51:16.664Z,66.2
2023-02-02T01:53:12.126Z,66.3
2023-02-02T01:55:22.340Z,66.4
2023-02-02T01:57:13.627Z,66.2
2023-02-02T01:59:12.980Z,66.4
2023-02-02T02:01:16.395Z,66.5
2023-02-02T02:03:55.777Z,66.4
2023-02-02T02:05:47.488Z,66.2
2023-02-02T02:07:12.042Z,66.3
2023-02-02T02:09:16.539Z,66.4
2023-02-02T02:11:22.447Z,66.5
2023-02-02T02:13:12.151Z,66.9
2023-02-02T02:15:12.167Z,66.8
2023-02-02T02:17:16.391Z,66.9
2023-02-02T02:19:14.830Z,66.9
2023-02-02T02:21:12.010Z,67
2023-02-02T02:23:17.696Z,66.8
2023-02-02T02:25:12.108Z,66.6
2023-02-02T02:27:11.969Z,66.6
2023-02-02T02:29:11.982Z,66.8
2023-02-02T02:31:12.028Z,66.8
2023-02-02T02:33:12.005Z,66.7
2023-02-02T02:35:12.002Z,66.7
2023-02-02T02:37:12.034Z,66.7
2023-02-02T02:39:12.075Z,66.8
2023-02-02T02:41:12.082Z,66.9
2023-02-02T02:43:12.002Z,67
2023-02-02T02:45:14.901Z,67.6
2023-02-02T02:47:16.629Z,67.7
2023-02-02T02:49:44.556Z,67.6
2023-02-02T02:51:35.272Z,67.7
2023-02-02T02:53:12.004Z,67.6
2023-02-02T02:55:12.118Z,67.9
2023-02-02T02:57:19.473Z,67.6
2023-02-02T02:59:35.215Z,67.6
2023-02-02T03:01:12.088Z,67.6
2023-02-02T03:03:11.936Z,68.3
2023-02-02T03:05:12.090Z,68.2
2023-02-02T03:07:11.975Z,68.3
2023-02-02T03:09:11.995Z,68.3
2023-02-02T03:11:13.329Z,68.3
2023-02-02T03:13:13.017Z,68.4
2023-02-02T03:15:11.911Z,68.4
2023-02-02T03:17:13.522Z,68.4
2023-02-02T03:19:11.911Z,68.5
2023-02-02T03:21:11.953Z,68.5
2023-02-02T03:23:38.281Z,68.6
2023-02-02T03:24:59.341Z,68.6
2023-02-02T03:27:13.318Z,68.5
2023-02-02T03:29:11.851Z,68.4
2023-02-02T03:31:12.096Z,68.5
2023-02-02T03:33:11.928Z,68.5
2023-02-02T03:35:11.900Z,68.7
2023-02-02T03:37:11.881Z,68.8
2023-02-02T03:39:11.935Z,68.8
2023-02-02T03:41:11.861Z,68.8
2023-02-02T03:43:11.928Z,68.4
2023-02-02T03:45:11.847Z,67.7
2023-02-02T03:47:12.010Z,67.8
2023-02-02T03:49:17.980Z,68
2023-02-02T03:51:12.988Z,68.1
2023-02-02T03:53:11.900Z,68.3
2023-02-02T03:55:11.892Z,68.6
2023-02-02T03:57:11.877Z,68.6
2023-02-02T03:59:11.823Z,68.9
2023-02-02T04:01:11.975Z,68.9
2023-02-02T04:03:11.918Z,68.9
2023-02-02T04:05:11.924Z,69
2023-02-02T04:07:11.947Z,69
2023-02-02T04:09:13.088Z,69.2
2023-02-02T04:11:11.856Z,69.2
2023-02-02T04:13:11.857Z,69.1
2023-02-02T04:15:11.822Z,69.3
2023-02-02T04:17:14.498Z,69.2
2023-02-02T04:19:21.562Z,69.2
2023-02-02T04:21:11.934Z,69.2
2023-02-02T04:23:12.975Z,68.4
2023-02-02T04:25:12.269Z,67.9
2023-02-02T04:27:26.007Z,67.6
2023-02-02T04:29:11.913Z,67.5
2023-02-02T04:31:12.000Z,68
2023-02-02T04:33:13.365Z,68.3
2023-02-02T04:35:11.783Z,68.5
2023-02-02T04:37:17.485Z,68.8
2023-02-02T04:39:38.268Z,69.1
2023-02-02T04:41:11.880Z,69.1
2023-02-02T04:43:12.000Z,68.8
2023-02-02T04:46:48.318Z,68.3
2023-02-02T04:48:53.276Z,68.8
2023-02-02T04:50:54.745Z,68.5
2023-02-02T04:52:48.965Z,68.6
2023-02-02T04:54:48.949Z,68.7
2023-02-02T04:56:48.967Z,68.9
2023-02-02T04:58:48.961Z,69.2
2023-02-02T05:00:48.900Z,69.2
2023-02-02T05:02:48.857Z,69.1
2023-02-02T05:04:48.966Z,69
2023-02-02T05:06:53.315Z,69
2023-02-02T05:08:48.893Z,69
2023-02-02T05:10:51.445Z,68.9
2023-02-02T05:12:59.659Z,69
2023-02-02T05:14:48.866Z,69
2023-02-02T05:16:50.099Z,68.8
2023-02-02T05:18:49.979Z,68.6
2023-02-02T05:20:49.964Z,68.7
2023-02-02T05:22:53.019Z,68.4
2023-02-02T05:24:48.835Z,67.9
2023-02-02T05:27:11.577Z,67.7
2023-02-02T05:28:48.806Z,67.3
2023-02-02T05:30:48.964Z,67.3
2023-02-02T05:32:48.826Z,67.4
2023-02-02T05:34:48.813Z,67.6
2023-02-02T05:36:48.880Z,67.8
2023-02-02T05:38:48.782Z,68
2023-02-02T05:40:50.118Z,68.1
2023-02-02T05:42:48.895Z,68.3
2023-02-02T05:44:48.934Z,68.3
2023-02-02T05:46:48.781Z,68.1
2023-02-02T05:48:59.085Z,68.1
2023-02-02T05:50:48.974Z,68.2
2023-02-02T05:52:48.863Z,68.1
2023-02-02T05:54:50.161Z,68.2
2023-02-02T05:56:48.821Z,67.9
2023-02-02T05:58:48.921Z,67.9
2023-02-02T06:00:48.816Z,68.1
2023-02-02T06:02:48.994Z,68.3
2023-02-02T06:04:49.994Z,68.4
2023-02-02T06:06:48.782Z,68.2
2023-02-02T06:08:48.811Z,68.3
2023-02-02T06:10:48.958Z,68.3
2023-02-02T06:12:48.965Z,67.8
2023-02-02T06:15:11.485Z,68
2023-02-02T06:16:48.793Z,67.9
2023-02-02T06:18:48.774Z,67.7
2023-02-02T06:20:48.919Z,67.9
2023-02-02T06:22:48.918Z,68
2023-02-02T06:24:48.838Z,68.2
2023-02-02T06:26:48.872Z,68.1
2023-02-02T06:28:53.264Z,67.7
2023-02-02T06:30:50.046Z,67.6
2023-02-02T06:32:48.912Z,67.6
2023-02-02T06:34:53.158Z,67.6
2023-02-02T06:36:50.035Z,67.5
2023-02-02T06:38:51.337Z,67.8
2023-02-02T06:40:48.858Z,67.9
2023-02-02T06:42:48.769Z,67.9
2023-02-02T06:44:49.978Z,67.9
2023-02-02T06:46:56.490Z,67.6
2023-02-02T06:48:49.819Z,67.9
2023-02-02T06:51:14.320Z,68.3
2023-02-02T06:52:48.749Z,68.5
2023-02-02T06:54:48.772Z,68.3
2023-02-02T06:56:48.722Z,68.4
2023-02-02T06:58:48.792Z,68.6
2023-02-02T07:00:54.851Z,68.7
2023-02-02T07:02:48.886Z,68.6
2023-02-02T07:04:51.605Z,68.4
2023-02-02T07:06:48.701Z,67.9
2023-02-02T07:08:53.135Z,67.4
2023-02-02T07:11:14.801Z,68.5
2023-02-02T07:12:50.137Z,68.6
2023-02-02T07:14:51.335Z,68.6
2023-02-02T07:16:48.932Z,68.5
2023-02-02T07:18:48.754Z,68.5
2023-02-02T07:20:48.857Z,68.6
2023-02-02T07:22:26.196Z,68.6
2023-02-02T07:22:48.679Z,68.3
2023-02-02T07:24:48.685Z,68.2
2023-02-02T07:26:48.889Z,67.7
2023-02-02T07:28:48.669Z,66.8
2023-02-02T07:30:48.788Z,67.3
2023-02-02T07:32:48.683Z,67.6
2023-02-02T07:34:48.939Z,67.6
2023-02-02T07:36:48.724Z,67.4
2023-02-02T07:38:49.736Z,67.7
2023-02-02T07:40:48.686Z,67.8
2023-02-02T07:42:50.039Z,67.6
2023-02-02T07:44:48.867Z,67.6
2023-02-02T07:46:49.756Z,67
2023-02-02T07:48:48.727Z,66.7
2023-02-02T07:50:48.851Z,66.9
2023-02-02T07:52:48.801Z,67.2
2023-02-02T07:54:48.643Z,67.3
2023-02-02T07:56:48.631Z,67.2
2023-02-02T07:58:48.659Z,67.3
2023-02-02T08:00:48.734Z,66.7
2023-02-02T08:02:48.708Z,67.1
2023-02-02T08:04:48.622Z,66.6
2023-02-02T08:06:48.749Z,67.2
2023-02-02T08:08:49.920Z,65.1
2023-02-02T08:10:48.610Z,65.6
2023-02-02T08:12:48.630Z,64.7
2023-02-02T08:14:48.663Z,65.8
2023-02-02T08:16:48.661Z,66
2023-02-02T08:18:48.661Z,66.1
2023-02-02T08:20:48.606Z,65.8
2023-02-02T08:22:48.684Z,66.1
2023-02-02T08:24:48.633Z,66.5
2023-02-02T08:26:48.638Z,66.5
2023-02-02T08:28:48.648Z,64.2
2023-02-02T08:30:48.632Z,65.5
2023-02-02T08:32:48.653Z,65.2
2023-02-02T08:34:48.575Z,65.7
2023-02-02T08:36:48.593Z,65.4
2023-02-02T08:38:48.547Z,65.9
2023-02-02T08:40:48.626Z,66
2023-02-02T08:42:48.595Z,66.1
2023-02-02T08:46:01.032Z,65.9
2023-02-02T08:46:48.621Z,64.1
2023-02-02T08:48:48.615Z,65.3
2023-02-02T08:50:49.850Z,66.1
2023-02-02T08:52:48.625Z,65.2
2023-02-02T08:54:49.890Z,65.2
2023-02-02T08:56:48.548Z,64.6
2023-02-02T08:58:48.562Z,63.8
2023-02-02T09:00:48.630Z,63.5
2023-02-02T09:02:48.543Z,63.6
2023-02-02T09:04:48.545Z,64.1
2023-02-02T09:06:48.569Z,64.3
2023-02-02T09:08:49.930Z,64.6
2023-02-02T09:10:48.606Z,64.8
2023-02-02T09:12:48.517Z,64.7
2023-02-02T09:14:48.546Z,64.5
2023-02-02T09:16:48.529Z,64.5
2023-02-02T09:18:48.566Z,64.9
2023-02-02T09:20:48.505Z,64.9
2023-02-02T09:22:48.543Z,64.1
2023-02-02T09:24:48.550Z,64.3
2023-02-02T09:26:48.691Z,63.9
2023-02-02T09:28:49.684Z,64.3
2023-02-02T09:30:48.539Z,65
2023-02-02T09:33:11.209Z,65.2
2023-02-02T09:34:48.606Z,65.2
2023-02-02T09:36:48.511Z,64.9
2023-02-02T09:38:48.520Z,64.7
2023-02-02T09:40:48.606Z,64.9
2023-02-02T09:42:48.559Z,64.7
2023-02-02T09:44:48.537Z,64.8
2023-02-02T09:46:48.462Z,65
2023-02-02T09:48:48.528Z,64.6
2023-02-02T09:50:48.502Z,64.3
2023-02-02T09:52:48.458Z,64.5
2023-02-02T09:54:48.480Z,64.8
2023-02-02T09:56:48.571Z,64.8
2023-02-02T09:58:49.888Z,65.2
2023-02-02T10:00:48.556Z,65.2
2023-02-02T10:02:48.454Z,65.3
2023-02-02T10:04:48.474Z,65.2
2023-02-02T10:06:48.501Z,64.6
2023-02-02T10:08:48.451Z,64.9
2023-02-02T10:10:48.457Z,63.7
2023-02-02T10:12:48.468Z,64
2023-02-02T10:14:48.513Z,65.1
2023-02-02T10:16:48.493Z,65.4
2023-02-02T10:18:48.472Z,65.4
2023-02-02T10:20:48.583Z,64.9
2023-02-02T10:22:48.433Z,64.3
2023-02-02T10:24:48.445Z,64.5
2023-02-02T10:26:48.471Z,63.4
2023-02-02T10:28:48.496Z,64.5
2023-02-02T10:30:48.600Z,63.4
2023-02-02T10:32:48.496Z,64.3
2023-02-02T10:34:48.410Z,65
2023-02-02T10:36:48.410Z,64.7
2023-02-02T10:38:48.443Z,64
2023-02-02T10:40:48.391Z,65.1
2023-02-02T10:42:48.404Z,65.3
2023-02-02T10:44:48.500Z,64.8
2023-02-02T10:46:48.414Z,64.8
2023-02-02T10:48:48.418Z,64.6
2023-02-02T10:50:49.705Z,64.3
2023-02-02T10:52:48.406Z,64.3
2023-02-02T10:54:56.256Z,64.7
2023-02-02T10:56:49.531Z,65.4
2023-02-02T10:58:48.435Z,65.6
2023-02-02T11:00:48.452Z,66
2023-02-02T11:02:49.666Z,66
2023-02-02T11:04:48.413Z,65.8
2023-02-02T11:06:48.375Z,65.9
2023-02-02T11:08:48.370Z,66.2
2023-02-02T11:10:48.718Z,66.3
2023-02-02T11:12:48.390Z,66.1
2023-02-02T11:14:48.346Z,66.1
2023-02-02T11:16:48.464Z,66.1
2023-02-02T11:18:48.433Z,65.5
2023-02-02T11:20:48.351Z,66
2023-02-02T11:22:48.344Z,66.5
2023-02-02T11:24:48.380Z,67.1
2023-02-02T11:26:48.391Z,66.7
2023-02-02T11:28:48.511Z,66.9
2023-02-02T11:30:48.446Z,66.9
2023-02-02T11:32:48.348Z,67.1
2023-02-02T11:34:48.447Z,66.7
2023-02-02T11:36:48.392Z,67.1
2023-02-02T11:38:49.715Z,67.4
2023-02-02T11:40:48.344Z,67.6
2023-02-02T11:42:48.365Z,67.5
2023-02-02T11:44:48.313Z,67.6
2023-02-02T11:46:48.388Z,67.4
2023-02-02T11:48:48.549Z,67.4
2023-02-02T11:50:56.094Z,67.5
2023-02-02T11:52:48.371Z,67.5
2023-02-02T11:54:54.242Z,67.7
2023-02-02T11:56:48.382Z,67.5
2023-02-02T11:58:52.637Z,68
2023-02-02T12:00:48.437Z,68
2023-02-02T12:03:15.302Z,68.3
2023-02-02T12:04:49.838Z,68.3
2023-02-02T12:06:51.117Z,67.8
2023-02-02T12:08:48.390Z,68.2
2023-02-02T12:11:17.706Z,68.2
2023-02-02T12:12:48.476Z,68.3
2023-02-02T12:14:51.191Z,68.4
2023-02-02T12:16:52.735Z,68.3
2023-02-02T12:18:51.476Z,68.5
2023-02-02T12:20:58.695Z,68.6
2023-02-02T12:22:50.893Z,68.7
2023-02-02T12:24:56.099Z,68.7
2023-02-02T12:26:01.657Z,68.7
2023-02-02T12:26:53.206Z,68.8
2023-02-02T12:27:57.421Z,68.8
2023-02-02T12:28:25.957Z,68.9
2023-02-02T12:30:34.408Z,68.9
2023-02-02T12:32:03.310Z,69.2
2023-02-02T12:34:09.064Z,69.1
2023-02-02T12:36:28.557Z,69.2
2023-02-02T12:38:07.555Z,69.2
2023-02-02T12:40:27.649Z,69.3
2023-02-02T12:42:05.907Z,69.4
2023-02-02T12:44:03.387Z,69.5
2023-02-02T12:46:12.454Z,69.6
2023-02-02T12:48:13.487Z,69.7
2023-02-02T12:50:04.525Z,69.8
2023-02-02T12:52:28.234Z,70
2023-02-02T12:54:32.336Z,70.2
2023-02-02T12:56:03.333Z,70.4
2023-02-02T12:58:03.377Z,70.3
2023-02-02T13:00:03.355Z,70.4
2023-02-02T13:02:04.632Z,70.6
2023-02-02T13:04:07.941Z,70.4
2023-02-02T13:06:04.361Z,70.3
2023-02-02T13:08:03.092Z,70.2
2023-02-02T13:10:03.141Z,70.3
2023-02-02T13:12:03.227Z,70.5
2023-02-02T13:14:07.605Z,70.7
2023-02-02T13:16:09.217Z,70.8
2023-02-02T13:18:15.003Z,70.7
2023-02-02T13:20:08.988Z,70.6
2023-02-02T13:22:03.238Z,69.7
2023-02-02T13:24:05.064Z,69.7
2023-02-02T13:26:27.440Z,69.7
2023-02-02T13:28:03.320Z,69.5
2023-02-02T13:30:04.245Z,69.5
2023-02-02T13:32:03.118Z,69.2
2023-02-02T13:34:28.246Z,69.1
2023-02-02T13:36:38.655Z,69.4
2023-02-02T13:38:30.683Z,69.5
2023-02-02T13:40:03.093Z,69.7
2023-02-02T13:42:07.396Z,68.6
2023-02-02T13:44:07.333Z,68.9
2023-02-02T13:46:03.143Z,69
2023-02-02T13:48:28.339Z,69.2
2023-02-02T13:50:07.743Z,69.6
2023-02-02T13:52:28.347Z,69.7
2023-02-02T13:54:43.537Z,69.4
2023-02-02T13:57:30.294Z,69.6
2023-02-02T13:58:15.767Z,68.8
2023-02-02T14:02:14.854Z,69.3
2023-02-02T14:03:09.434Z,69.3
2023-02-02T14:03:39.130Z,69
2023-02-02T14:05:40.429Z,67.7
2023-02-02T14:09:55.454Z,66.3
2023-02-02T14:10:15.897Z,64.7
2023-02-02T14:12:46.233Z,67
2023-02-02T14:14:17.515Z,66.8
2023-02-02T14:16:12.673Z,66.9
2023-02-02T14:18:11.473Z,66.6
2023-02-02T14:20:21.896Z,66.5
2023-02-02T14:20:49.411Z,66.5
2023-02-02T14:22:43.165Z,67.5
2023-02-02T14:24:47.849Z,65.8
2023-02-02T14:26:11.684Z,66.4
2023-02-02T14:28:12.489Z,66.6
2023-02-02T14:30:15.969Z,66.2
2023-02-02T14:32:15.901Z,66.9
2023-02-02T14:34:40.280Z,66.6
2023-02-02T14:36:17.775Z,64.5
2023-02-02T14:38:15.902Z,65
2023-02-02T14:40:12.573Z,65.8
2023-02-02T14:42:11.421Z,66.1
2023-02-02T14:44:33.900Z,65.4
2023-02-02T14:46:37.543Z,65
2023-02-02T14:48:11.463Z,64.2
2023-02-02T14:50:55.193Z,64.4
2023-02-02T14:52:11.416Z,64.1
2023-02-02T14:54:12.567Z,63.5
2023-02-02T14:56:11.358Z,64.6
2023-02-02T14:58:11.419Z,64.3
2023-02-02T15:00:11.654Z,62.9
2023-02-02T15:02:11.388Z,64
2023-02-02T15:04:11.333Z,64
2023-02-02T15:06:33.958Z,64.7
2023-02-02T15:08:47.486Z,64.5
2023-02-02T15:10:35.380Z,64.6
2023-02-02T15:12:38.545Z,64.8
2023-02-02T15:14:11.421Z,64.8
2023-02-02T15:16:35.188Z,65.4
2023-02-02T15:18:15.845Z,65.9
2023-02-02T15:20:11.354Z,65.8
2023-02-02T15:22:11.526Z,66.1
2023-02-02T15:22:56.706Z,66.1
2023-02-02T15:24:11.504Z,65.6
2023-02-02T15:26:34.151Z,66.5
2023-02-02T15:28:11.456Z,68
2023-02-02T15:30:21.678Z,67.4
2023-02-02T15:32:34.260Z,67.1
2023-02-02T15:34:11.373Z,66.7
2023-02-02T15:36:21.929Z,66.3
2023-02-02T15:38:23.368Z,66.1
2023-02-02T15:40:36.219Z,65.8
2023-02-02T15:42:25.550Z,65.7
2023-02-02T15:44:12.548Z,66
2023-02-02T15:46:34.154Z,65.9
2023-02-02T15:48:48.492Z,66.5
2023-02-02T15:50:11.444Z,66.7
2023-02-02T15:52:15.452Z,67
2023-02-02T15:54:11.440Z,67
2023-02-02T15:56:11.355Z,67.6
2023-02-02T15:58:11.363Z,67.7
2023-02-02T16:00:25.556Z,67.7
2023-02-02T16:02:12.163Z,68.2
2023-02-02T16:04:13.991Z,68.7
2023-02-02T16:06:12.687Z,67.8
2023-02-02T16:08:21.824Z,67.6
2023-02-02T16:10:13.464Z,66.8
2023-02-02T16:12:11.511Z,66.9
2023-02-02T16:14:12.692Z,67.2
2023-02-02T16:16:12.774Z,66.4
2023-02-02T16:18:11.373Z,66.8
2023-02-02T16:18:49.166Z,66.8
2023-02-02T16:20:12.635Z,66.6
2023-02-02T16:22:11.408Z,66.9
2023-02-02T16:23:04.687Z,66.9
2023-02-02T16:24:17.297Z,66.5
2023-02-02T16:26:15.164Z,66.3
2023-02-02T16:27:40.083Z,66.3
2023-02-02T16:28:11.251Z,66
2023-02-02T16:30:11.287Z,66.1
2023-02-02T16:32:53.890Z,65.9
2023-02-02T16:34:08.365Z,65.9
2023-02-02T16:34:54.852Z,65.8
2023-02-02T16:36:12.808Z,65.8
2023-02-02T16:53:28.855Z,64.9
2023-02-02T16:55:47.748Z,65.2
2023-02-02T16:56:06.177Z,65
2023-02-02T16:58:06.129Z,64
2023-02-02T17:00:06.296Z,63.8
2023-02-02T17:02:08.853Z,64.4
2023-02-02T17:04:07.455Z,64.6
2023-02-02T17:06:06.211Z,65.5
2023-02-02T17:08:33.582Z,64.9
2023-02-02T17:10:29.238Z,64.9
2023-02-02T17:12:06.329Z,64.9
2023-02-02T17:14:12.336Z,65.1
2023-02-02T17:15:27.797Z,65.1
2023-02-02T17:18:06.323Z,65.4
2023-02-02T17:20:06.176Z,66.2
2023-02-02T17:22:08.115Z,67.9
2023-02-02T17:24:10.515Z,66.1
2023-02-02T17:26:07.399Z,65.9
2023-02-02T17:28:29.328Z,65.7
2023-02-02T17:30:07.417Z,65.5
2023-02-02T17:32:06.283Z,66.7
2023-02-02T17:34:06.137Z,65.8
2023-02-02T17:36:06.158Z,66.2
2023-02-02T17:38:07.379Z,66.1
2023-02-02T17:40:06.338Z,65.5
2023-02-02T17:42:06.232Z,65
2023-02-02T17:44:06.203Z,62.9
2023-02-02T17:46:06.209Z,64.4
2023-02-02T17:48:06.177Z,64.4
2023-02-02T17:49:59.441Z,64.4
2023-02-02T17:52:06.352Z,64.5
2023-02-02T17:54:06.078Z,64.1
2023-02-02T17:56:06.095Z,62.9
2023-02-02T17:58:07.456Z,62.1
2023-02-02T17:58:36.981Z,62.1
2023-02-02T18:00:11.898Z,62.3
2023-02-02T18:02:18.306Z,62.3
2023-02-02T18:02:42.807Z,62.3
2023-02-02T18:04:30.384Z,59.5
2023-02-02T18:06:10.227Z,60.8
2023-02-02T18:08:16.586Z,59.2
2023-02-02T18:08:55.952Z,59.2
2023-02-02T18:10:07.679Z,59.6
2023-02-02T18:12:01.393Z,60.6
2023-02-02T18:12:59.456Z,60.9
2023-02-02T18:15:35.391Z,61.4
2023-02-02T18:17:44.026Z,61.9
2023-02-02T18:19:35.656Z,61.2
2023-02-02T18:21:43.391Z,62
2023-02-02T18:23:36.731Z,59.6
2023-02-02T18:25:35.457Z,58.7
2023-02-02T18:27:57.436Z,59
2023-02-02T18:29:34.591Z,60.2
2023-02-02T18:31:33.767Z,61
2023-02-02T18:33:37.916Z,60.2
2023-02-02T18:35:38.734Z,59.9
2023-02-02T18:37:56.628Z,60.3
2023-02-02T18:39:33.612Z,60.1
2023-02-02T18:41:38.027Z,60.1
2023-02-02T18:43:34.741Z,60.2
2023-02-02T18:44:35.462Z,60.2
2023-02-02T18:45:38.002Z,59.2
2023-02-02T18:47:33.625Z,59.3
2023-02-02T18:49:59.456Z,56.3
2023-02-02T18:50:59.791Z,56.3
2023-02-02T18:51:44.007Z,57.3
2023-02-02T18:53:34.926Z,57.8
2023-02-02T18:55:44.011Z,57.8
2023-02-02T18:57:36.077Z,56.2
2023-02-02T18:59:11.594Z,57.3
2023-02-02T19:00:28.573Z,58.4
2023-02-02T19:03:12.966Z,59.7
2023-02-02T19:04:04.802Z,58.6
2023-02-02T19:08:29.230Z,57.6
2023-02-02T19:09:02.044Z,57.6
2023-02-02T19:11:22.937Z,57.3
2023-02-02T19:12:41.108Z,58.1
2023-02-02T19:13:05.357Z,58.3
2023-02-02T19:15:02.981Z,59.3
2023-02-02T19:16:59.698Z,59.5
2023-02-02T19:34:19.006Z,60.4
2023-02-02T19:34:52.474Z,60.6
2023-02-02T19:35:25.521Z,60.6
2023-02-02T19:36:17.181Z,60.2
2023-02-02T19:38:21.828Z,60.2
2023-02-02T19:40:15.825Z,58.8
2023-02-02T19:42:30.143Z,59
2023-02-02T19:43:00.964Z,59
2023-02-02T19:44:15.993Z,58.7
2023-02-02T19:46:17.211Z,60.4
2023-02-02T19:48:41.453Z,60.2
2023-02-02T19:50:20.097Z,60.1
2023-02-02T19:52:44.450Z,60
2023-02-02T19:54:20.252Z,59.9
2023-02-02T19:56:16.745Z,60.7
2023-02-02T19:58:15.866Z,59.1
2023-02-02T20:00:16.795Z,60.1
2023-02-02T20:02:15.756Z,59.7
2023-02-02T20:04:38.454Z,60.4
2023-02-02T20:06:15.735Z,60.8
2023-02-02T20:08:18.336Z,61.2
2023-02-02T20:10:18.351Z,60.7
2023-02-02T20:12:30.748Z,60.7
2023-02-02T20:14:18.566Z,60.6
2023-02-02T20:16:15.901Z,61.6
2023-02-02T20:18:47.399Z,61.2
2023-02-02T20:20:15.751Z,61.6
2023-02-02T20:22:17.329Z,62
2023-02-02T20:24:20.265Z,62.3
2023-02-02T20:26:17.127Z,62.3
2023-02-02T20:28:32.235Z,62.3
2023-02-02T20:30:20.056Z,61.8
2023-02-02T20:32:26.185Z,62.1
2023-02-02T20:34:15.784Z,62.5
2023-02-02T20:36:17.848Z,62.4
2023-02-02T20:38:17.253Z,61.7
2023-02-02T20:40:15.844Z,62.5
2023-02-02T20:42:15.749Z,62.6
2023-02-02T20:44:15.685Z,62.8
2023-02-02T20:46:26.219Z,62.4
2023-02-02T20:48:26.088Z,62.6
2023-02-02T20:50:17.123Z,62.7
2023-02-02T20:52:15.621Z,62.6
2023-02-02T20:54:16.852Z,62.8
2023-02-02T20:55:11.261Z,62.8
2023-02-02T20:56:27.617Z,63.1
2023-02-02T20:58:15.793Z,63.3
2023-02-02T21:00:15.628Z,62.8
2023-02-02T21:02:44.329Z,62.6
2023-02-02T21:04:16.951Z,63
2023-02-02T21:06:38.423Z,63
2023-02-02T21:08:15.848Z,63.2
2023-02-02T21:10:20.373Z,63
2023-02-02T21:12:16.782Z,63.3
2023-02-02T21:14:27.510Z,63.5
2023-02-02T21:16:17.087Z,63.3
2023-02-02T21:18:15.739Z,62.9
2023-02-02T21:20:15.692Z,62.5
2023-02-02T21:22:16.959Z,63
2023-02-02T21:24:15.913Z,63
2023-02-02T21:25:41.469Z,63
2023-02-02T21:28:15.844Z,64.1
2023-02-02T21:30:18.232Z,64.4
2023-02-02T21:32:16.890Z,64.5
2023-02-02T21:34:43.485Z,65
2023-02-02T21:37:43.597Z,64.7
2023-02-02T21:37:44.473Z,64.8
2023-02-02T21:39:45.704Z,64.8
2023-02-02T21:41:08.092Z,64.8
2023-02-02T21:42:14.109Z,65
2023-02-02T21:44:07.205Z,65.1
2023-02-02T21:44:30.946Z,65.1
2023-02-02T21:46:25.915Z,65.4
2023-02-02T21:47:56.260Z,65.1
2023-02-02T21:49:47.396Z,65.1
2023-02-02T21:50:32.123Z,64.6
2023-02-02T21:51:56.351Z,64.8
2023-02-02T21:53:57.212Z,64.7
2023-02-02T21:55:57.574Z,64.8
2023-02-02T21:57:58.256Z,64.7
2023-02-02T22:00:01.995Z,65
2023-02-02T22:01:58.047Z,65.3
2023-02-02T22:03:57.437Z,65.5
2023-02-02T22:06:02.318Z,65.6
2023-02-02T22:07:56.064Z,65.4
2023-02-02T22:09:56.160Z,65.7
2023-02-02T22:10:44.040Z,65.7
2023-02-02T22:11:56.116Z,65.7
2023-02-02T22:13:56.142Z,65.8
2023-02-02T22:15:57.232Z,65.9
2023-02-02T22:17:56.317Z,65.8
2023-02-02T22:19:56.216Z,65.7
2023-02-02T22:21:21.403Z,65.7
2023-02-02T22:22:02.021Z,65.7
2023-02-02T22:23:57.486Z,65.9
2023-02-02T22:26:23.580Z,65.9
2023-02-02T22:27:57.162Z,65.9
2023-02-02T22:29:58.824Z,66.2
2023-02-02T22:32:00.710Z,66.4
2023-02-02T22:34:25.422Z,66.2
2023-02-02T22:34:58.002Z,66.2
2023-02-02T22:35:18.120Z,66.3
2023-02-02T22:37:21.365Z,66.3
2023-02-02T22:39:17.872Z,66.3
2023-02-02T22:41:17.764Z,66.6
2023-02-02T22:43:19.519Z,66.8
2023-02-02T22:45:17.736Z,66.7
2023-02-02T22:47:18.093Z,66.7
2023-02-02T22:49:30.105Z,66.8
2023-02-02T22:51:24.174Z,66.9
2023-02-02T22:53:22.021Z,66.9
2023-02-02T22:55:39.563Z,67
2023-02-02T22:57:21.952Z,67.2
2023-02-02T22:59:18.957Z,67.2
2023-02-02T23:01:18.144Z,67.2
2023-02-02T23:03:20.235Z,67.5
2023-02-02T23:05:17.678Z,67.5
2023-02-02T23:07:17.571Z,67.4
2023-02-02T23:09:17.987Z,67.4
2023-02-02T23:11:17.599Z,67.7
2023-02-02T23:13:17.562Z,67.6
2023-02-02T23:15:21.855Z,67.6
2023-02-02T23:17:18.909Z,67.6
2023-02-02T23:19:20.285Z,67.8
2023-02-02T23:21:23.436Z,67.8
2023-02-02T23:23:17.737Z,68
2023-02-02T23:25:18.044Z,68.1
2023-02-02T23:27:17.547Z,68.1
2023-02-02T23:28:39.297Z,68.1
2023-02-02T23:29:17.585Z,67.9
2023-02-02T23:31:17.717Z,68.1
2023-02-02T23:33:17.747Z,68.2
2023-02-02T23:35:18.034Z,68.6
2023-02-02T23:37:17.549Z,68.5
2023-02-02T23:39:18.799Z,68.3
2023-02-02T23:41:17.593Z,68
2023-02-02T23:43:17.556Z,68.3
2023-02-02T23:45:17.550Z,68.2
2023-02-02T23:47:17.515Z,68.2
2023-02-02T23:49:17.526Z,68.4
2023-02-02T23:51:20.064Z,68.5
2023-02-02T23:53:17.570Z,68.5
2023-02-02T23:55:17.561Z,68.5
2023-02-02T23:57:19.989Z,68.3
2023-02-02T23:59:17.592Z,68.4
